Latest Weather Observations for Cape Leeuwin

IDW60801

Issued at 6:43 pm WST Monday 20 May 2019 (issued every 10 minutes, with the page automatically refreshed every 10 minutes)

About weather observations | Map of weather stations | Latest weather observations for WA | Other Formats
Station Details ID: 009518 Name: CAPE LEEUWIN Lat: -34.37 Lon: 115.14 Height: 13.0 m
Data from the previous 72 hours. | See also: Recent months at Cape Leeuwin
Date/Time
WST
Temp
°C
App
Temp
°C
Dew
Point
°C
Rel
Hum
%
Delta-T
°C
Wind Press
QNH
hPa
Press
MSL
hPa
Rain since
9am
mm
Dir  Spd
km/h
Gust
km/h
Spd
kts
Gust
kts
20/06:30pm 16.8 10.4 9.5 62 3.8 W 33 41 18 22 1018.0 1018.0 0.2
20/06:00pm 16.9 9.5 8.2 56 4.4 W 37 43 20 23 1017.7 1017.7 0.2
20/05:30pm 16.7 8.1 8.0 56 4.4 W 43 52 23 28 1017.5 1017.5 0.2
20/05:00pm 16.8 8.5 9.5 62 3.8 W 43 48 23 26 1017.0 1017.0 0.2
20/04:30pm 17.0 9.3 10.2 64 3.6 W 41 54 22 29 1017.0 1017.0 0.2
20/04:00pm 16.4 9.8 11.2 71 2.8 WSW 37 46 20 25 1016.9 1016.9 0.2
20/03:30pm 17.2 11.3 10.6 65 3.5 WNW 32 44 17 24 1016.3 1016.3 0.2
20/03:18pm 16.1 9.2 11.5 74 2.5 WNW 39 54 21 29 1016.3 1016.3 0.2
20/03:00pm 16.6 9.6 12.6 77 2.2 W 41 59 22 32 1016.1 1016.1 0.2
20/02:57pm 17.1 10.7 12.0 72 2.8 W 37 59 20 32 1016.1 1016.1 0.2
20/02:30pm 17.0 8.9 10.8 67 3.3 W 44 52 24 28 1015.9 1015.9 0.2
20/02:12pm 17.6 10.2 11.3 66 3.4 W 41 61 22 33 1015.3 1015.3 0.2
20/02:00pm 18.2 11.1 10.8 62 4.0 W 39 48 21 26 1015.5 1015.5 0.2
20/01:30pm 17.5 10.3 10.4 63 3.8 W 39 46 21 25 1015.3 1015.3 0.2
20/01:00pm 16.7 11.1 12.1 74 2.5 W 33 43 18 23 1015.3 1015.3 0.2
20/12:38pm 17.2 10.8 12.1 72 2.8 W 37 44 20 24 1015.4 1015.4 0.0
20/12:30pm 17.8 11.5 10.9 64 3.7 WNW 35 41 19 22 1015.4 1015.4 0.0
20/12:00pm 17.3 10.0 11.6 69 3.1 W 41 50 22 27 1015.3 1015.3 0.0
20/11:30am 17.7 11.3 10.6 63 3.8 W 35 43 19 23 1015.4 1015.4 0.0
20/11:00am 17.1 9.9 10.5 65 3.5 WSW 39 46 21 25 1015.4 1015.4 0.0
20/10:30am 16.8 9.1 10.2 65 3.5 WSW 41 48 22 26 1015.3 1015.3 0.0
20/10:00am 16.3 11.3 11.1 71 2.8 W 28 46 15 25 1015.1 1015.1 0.0
20/09:59am 16.4 11.5 11.4 72 2.7 W 28 46 15 25 1015.1 1015.1 0.0
20/09:39am 15.8 10.9 12.5 81 1.8 WNW 30 46 16 25 1014.9 1014.9 0.0
20/09:37am 15.8 11.4 12.9 83 1.6 WNW 28 46 15 25 1014.9 1014.9 0.0
20/09:30am 15.5 11.1 13.0 85 1.4 WNW 28 33 15 18 1014.9 1014.9 0.0
20/09:28am 15.6 11.3 13.1 85 1.4 W 28 33 15 18 1014.9 1014.9 0.0
20/09:16am 15.3 7.8 12.6 84 1.5 WNW 44 56 24 30 1014.7 1014.7 0.0
20/09:05am 16.2 9.8 13.2 82 1.7 W 39 48 21 26 1014.5 1014.5 0.0
20/09:00am 17.0 10.4 11.5 70 3.0 W 37 43 20 23 1014.5 1014.5 1.2
20/08:30am 16.0 9.5 11.8 76 2.3 WSW 37 44 20 24 1014.0 1014.0 1.2
20/08:00am 14.9 10.2 13.1 89 1.0 W 30 37 16 20 1013.6 1013.6 1.2
20/07:34am 16.2 9.8 13.2 82 1.7 WNW 39 57 21 31 1012.9 1012.9 0.6
20/07:30am 15.9 9.5 12.0 77 2.1 WNW 37 43 20 23 1012.9 1012.9 0.6
20/07:19am 15.2 7.6 12.3 83 1.6 WNW 44 57 24 31 1012.8 1012.8 0.6
20/07:13am 15.2 6.8 13.4 89 1.0 WNW 50 59 27 32 1012.6 1012.6 0.6
20/07:00am 16.5 9.3 10.5 67 3.2 W 39 48 21 26 1012.4 1012.4 0.4
20/06:30am 15.8 10.0 10.7 71 2.7 WSW 32 39 17 21 1012.0 1012.0 0.4
20/06:21am 15.6 8.1 10.9 73 2.5 WSW 41 48 22 26 1011.9 1011.9 0.4
20/06:00am 16.1 7.1 12.7 80 1.9 WSW 52 61 28 33 1011.4 1011.4 0.4
20/05:55am 17.1 9.8 12.8 76 2.4 W 43 61 23 33 1011.3 1011.3 0.4
20/05:53am 17.3 10.1 10.6 64 3.6 W 39 57 21 31 1011.4 1011.4 0.4
20/05:30am 17.1 10.1 9.9 62 3.8 W 37 43 20 23 1011.2 1011.2 0.4
20/05:00am 17.1 8.5 9.0 59 4.2 W 44 54 24 29 1011.0 1011.0 0.4
20/04:30am 17.1 7.5 9.4 60 4.0 W 50 57 27 31 1010.4 1010.4 0.4
20/04:00am 16.9 9.2 11.6 71 2.9 W 43 52 23 28 1010.3 1010.3 0.4
20/03:30am 17.3 10.2 11.0 66 3.4 W 39 46 21 25 1010.3 1010.3 0.4
20/03:00am 17.4 8.9 12.1 71 2.9 W 48 56 26 30 1010.2 1010.2 0.4
20/02:30am 17.0 8.3 12.5 75 2.5 WSW 50 59 27 32 1009.6 1009.6 0.4
20/02:00am 16.9 7.7 13.3 79 2.0 WSW 54 67 29 36 1009.1 1009.1 0.4
20/01:30am 17.0 8.3 14.8 87 1.3 W 54 63 29 34 1008.4 1008.4 0.4
20/01:29am 17.3 8.4 15.2 87 1.2 W 56 67 30 36 1008.4 1008.4 0.4
20/01:13am 17.9 8.4 15.2 84 1.6 NW 59 80 32 43 1007.8 1007.8 0.4
20/01:07am 18.7 9.6 15.3 80 2.0 NW 57 80 31 43 1007.4 1007.4 0.0
20/01:00am 18.8 12.7 16.1 84 1.6 NNW 43 63 23 34 1007.3 1007.3 0.0
20/12:58am 18.8 13.0 16.1 84 1.6 NNW 41 63 22 34 1007.3 1007.3 0.0
20/12:30am 17.9 11.5 15.9 88 1.2 N 44 59 24 32 1007.8 1007.8 0.0
20/12:09am 16.7 11.7 15.0 90 1.0 N 35 54 19 29 1008.2 1008.2 0.0
20/12:00am 16.1 11.2 14.3 89 1.0 N 33 48 18 26 1008.3 1008.3 0.0
 
Date/Time
WST
Temp
°C
App
Temp
°C
Dew
Point
°C
Rel
Hum
%
Delta-T
°C
Wind Press
QNH
hPa
Press
MSL
hPa
Rain since
9am
mm
Dir  Spd
km/h
Gust
km/h
Spd
kts
Gust
kts
19/11:30pm 15.7 10.6 13.0 84 1.5 N 32 54 17 29 1008.6 1008.6 0.0
19/11:00pm 15.7 10.1 11.6 76 2.2 NNE 32 50 17 27 1009.0 1009.0 0.0
19/10:59pm 15.7 10.1 11.6 76 2.2 NNE 32 50 17 27 1009.0 1009.0 0.0
19/10:30pm 14.9 9.6 11.2 78 2.0 NNE 30 43 16 23 1009.4 1009.4 0.0
19/10:00pm 14.3 9.3 10.9 80 1.8 NNE 28 37 15 20 1010.2 1010.2 0.0
19/09:30pm 14.0 8.6 10.8 81 1.7 NNE 30 43 16 23 1010.6 1010.6 0.0
19/09:00pm 14.1 8.1 10.1 77 2.1 NNE 32 44 17 24 1010.7 1010.7 0.0
19/08:30pm 14.6 8.1 9.1 69 2.8 NNE 33 44 18 24 1011.2 1011.2 0.0
19/08:00pm 14.1 7.8 9.0 71 2.6 NE 32 41 17 22 1011.5 1011.5 0.0
19/07:30pm 14.1 7.6 9.0 71 2.6 NE 33 43 18 23 1011.9 1011.9 0.0
19/07:00pm 14.1 7.8 8.8 70 2.7 NE 32 44 17 24 1012.3 1012.3 0.0
19/06:30pm 14.3 8.4 9.0 70 2.7 NE 30 39 16 21 1012.6 1012.6 0.0
19/06:00pm 14.6 8.7 9.1 69 2.8 NE 30 39 16 21 1012.8 1012.8 0.0
19/05:30pm 14.7 9.2 9.2 69 2.8 NE 28 39 15 21 1013.0 1013.0 0.0
19/05:00pm 15.2 9.6 8.9 66 3.2 NNE 28 39 15 21 1013.1 1013.1 0.0
19/04:30pm 15.7 10.1 8.9 64 3.5 NNE 28 41 15 22 1013.0 1013.0 0.0
19/04:00pm 16.3 11.1 8.9 61 3.8 NNE 26 35 14 19 1013.4 1013.4 0.0
19/03:30pm 16.6 11.5 9.3 62 3.8 NNE 26 33 14 18 1013.6 1013.6 0.0
19/03:00pm 16.9 11.3 8.7 58 4.2 NNE 28 35 15 19 1013.8 1013.8 0.0
19/02:30pm 16.7 11.3 8.2 57 4.3 N 26 41 14 22 1014.3 1014.3 0.0
19/02:00pm 16.5 10.9 8.9 61 3.9 NNE 28 37 15 20 1014.4 1014.4 0.0
19/01:42pm 16.5 10.4 8.2 58 4.2 N 30 48 16 26 1014.7 1014.7 0.0
19/01:30pm 16.8 11.9 8.6 58 4.2 NNE 24 41 13 22 1014.8 1014.8 0.0
19/01:00pm 15.8 10.1 8.3 61 3.8 NNE 28 39 15 21 1015.4 1015.4 0.0
19/12:30pm 15.1 8.5 8.4 64 3.4 NNE 33 43 18 23 1015.9 1015.9 0.0
19/12:00pm 15.4 9.0 8.5 63 3.5 NNE 32 48 17 26 1016.7 1016.7 0.0
19/11:30am 14.9 8.4 8.3 64 3.3 NNE 32 41 17 22 1017.5 1017.5 0.0
19/11:00am 13.9 7.8 8.1 68 2.9 NNE 30 43 16 23 1018.2 1018.2 0.0
19/10:30am 13.0 6.4 7.7 70 2.6 NNE 32 41 17 22 1018.5 1018.5 0.0
19/10:00am 12.7 5.9 7.1 69 2.7 NNE 32 43 17 23 1018.8 1018.8 0.0
19/09:30am 12.3 5.5 7.1 70 2.5 NNE 32 43 17 23 1018.8 1018.8 0.0
19/09:00am 11.8 4.7 6.5 70 2.5 NNE 33 43 18 23 1019.0 1019.0 0.0
19/08:30am 11.5 4.2 5.4 66 2.8 NNE 33 43 18 23 1019.1 1019.1 0.0
19/08:00am 11.6 4.9 5.5 66 2.8 NNE 30 37 16 20 1019.2 1019.2 0.0
19/07:30am 10.6 3.9 5.6 71 2.3 NNE 30 37 16 20 1019.2 1019.2 0.0
19/07:00am 10.0 4.0 5.4 73 2.1 NNE 26 32 14 17 1019.1 1019.1 0.0
19/06:30am 10.3 3.9 5.0 69 2.4 NNE 28 35 15 19 1019.1 1019.1 0.0
19/06:00am 10.2 3.7 4.9 69 2.4 NNE 28 33 15 18 1019.1 1019.1 0.0
19/05:30am 10.1 4.0 5.0 70 2.3 NNE 26 32 14 17 1019.4 1019.4 0.0
19/05:00am 10.4 4.5 5.6 72 2.2 NNE 26 33 14 18 1019.8 1019.8 0.0
19/04:30am 10.5 5.0 5.7 72 2.2 NNE 24 30 13 16 1020.1 1020.1 0.0
19/04:00am 10.6 5.1 6.1 74 2.1 NNE 24 32 13 17 1020.0 1020.0 0.0
19/03:30am 10.8 5.7 6.1 73 2.2 NNE 22 30 12 16 1020.5 1020.5 0.0
19/03:00am 10.8 5.7 6.1 73 2.2 NNE 22 28 12 15 1020.9 1020.9 0.0
19/02:30am 10.8 5.8 6.5 75 2.0 NNE 22 28 12 15 1021.0 1021.0 0.0
19/02:00am 11.0 6.0 6.3 73 2.2 NNE 22 26 12 14 1021.0 1021.0 0.0
19/01:30am 11.0 6.4 6.5 74 2.1 NNE 20 26 11 14 1021.1 1021.1 0.0
19/01:00am 11.1 6.1 6.4 73 2.2 NNE 22 28 12 15 1021.3 1021.3 0.0
19/12:30am 11.1 6.1 6.6 74 2.1 NNE 22 28 12 15 1021.6 1021.6 0.0
19/12:00am 11.3 6.4 6.9 74 2.1 NNE 22 28 12 15 1021.6 1021.6 0.0
 
Date/Time
WST
Temp
°C
App
Temp
°C
Dew
Point
°C
Rel
Hum
%
Delta-T
°C
Wind Press
QNH
hPa
Press
MSL
hPa
Rain since
9am
mm
Dir  Spd
km/h
Gust
km/h
Spd
kts
Gust
kts
18/11:30pm 11.6 7.2 6.7 72 2.3 NNE 19 22 10 12 1021.9 1021.9 0.0
18/11:00pm 11.8 7.4 6.7 71 2.4 NNE 19 22 10 12 1021.9 1021.9 0.0
18/10:30pm 11.7 7.8 7.3 74 2.1 NNE 17 20 9 11 1022.2 1022.2 0.0
18/10:00pm 11.9 8.9 7.8 76 2.0 NNE 13 17 7 9 1022.6 1022.6 0.0
18/09:30pm 12.0 8.7 7.9 76 2.0 NNE 15 20 8 11 1022.6 1022.6 0.0
18/09:00pm 12.2 9.3 8.1 76 2.0 NNE 13 17 7 9 1022.9 1022.9 0.0
18/08:30pm 13.0 10.2 8.6 74 2.2 NE 13 15 7 8 1023.0 1023.0 0.0
18/08:00pm 13.6 11.2 8.8 73 2.4 NE 11 13 6 7 1023.1 1023.1 0.0
18/07:30pm 14.5 11.4 7.4 62 3.5 SE 13 17 7 9 1023.1 1023.1 0.0
18/07:00pm 14.1 12.2 9.2 72 2.5 E 9 15 5 8 1023.2 1023.2 0.0
18/06:30pm 14.1 11.4 9.0 71 2.6 ESE 13 19 7 10 1023.0 1023.0 0.0
18/06:00pm 14.6 10.7 9.5 71 2.6 ESE 20 26 11 14 1022.9 1022.9 0.0
18/05:30pm 14.5 11.6 8.3 66 3.1 SE 13 20 7 11 1022.9 1022.9 0.0
18/05:00pm 14.4 12.3 8.4 67 3.0 SSE 9 13 5 7 1022.9 1022.9 0.0
18/04:30pm 15.1 12.1 7.9 62 3.6 SE 13 19 7 10 1023.1 1023.1 0.0
18/04:00pm 15.1 12.7 8.6 65 3.3 ESE 11 17 6 9 1023.1 1023.1 0.0
18/03:30pm 15.5 13.1 8.6 63 3.5 ESE 11 17 6 9 1023.1 1023.1 0.0
18/03:00pm 16.1 13.9 9.3 64 3.5 E 11 15 6 8 1023.1 1023.1 0.0
18/02:30pm 16.2 12.9 9.6 65 3.4 E 17 20 9 11 1023.1 1023.1 0.0
18/02:00pm 16.3 14.2 8.4 59 4.0 SSE 9 15 5 8 1023.2 1023.2 0.0
18/01:30pm 16.6 14.1 8.3 58 4.2 SE 11 17 6 9 1023.4 1023.4 0.0
18/01:00pm 16.5 14.3 7.7 56 4.4 SW 9 13 5 7 1023.6 1023.6 0.0
18/12:30pm 15.4 12.7 7.5 59 3.9 ESE 11 15 6 8 1023.9 1023.9 0.0
18/12:00pm 16.8 14.7 8.1 56 4.4 E 9 17 5 9 1024.3 1024.3 0.0
18/11:30am 16.2 13.7 8.0 58 4.1 ENE 11 17 6 9 1024.5 1024.5 0.0
18/11:00am 15.7 12.1 8.4 62 3.7 ENE 17 20 9 11 1024.5 1024.5 0.0
18/10:30am 15.6 13.4 7.8 59 3.9 E 9 13 5 7 1024.6 1024.6 0.0
18/10:00am 14.8 11.0 7.7 62 3.5 E 17 24 9 13 1024.7 1024.7 0.0
18/09:30am 14.8 12.9 7.7 62 3.5 E 7 11 4 6 1024.7 1024.7 0.0
18/09:00am 15.4 13.3 8.2 62 3.6 NE 9 11 5 6 1024.5 1024.5 0.0
18/08:30am 14.4 11.1 8.2 66 3.1 E 15 17 8 9 1024.4 1024.4 0.0
18/08:00am 14.6 9.9 7.7 63 3.4 SE 22 32 12 17 1024.1 1024.1 0.0
18/07:30am 14.0 9.6 7.2 63 3.3 S 20 28 11 15 1024.2 1024.2 0.0
18/07:00am 12.5 11.7 8.0 74 2.2 S 2 7 1 4 1024.2 1024.2 0.0
18/06:30am 12.6 11.5 8.3 75 2.1 NNW 4 9 2 5 1024.1 1024.1 0.0
18/06:00am 12.1 10.4 7.5 73 2.2 N 6 7 3 4 1024.3 1024.3 0.0
18/05:30am 11.4 9.0 7.2 75 2.0 NNE 9 11 5 6 1024.5 1024.5 0.0
18/05:00am 11.2 8.8 7.0 75 2.0 N 9 13 5 7 1024.6 1024.6 0.0
18/04:30am 11.6 8.1 7.0 73 2.2 NE 15 20 8 11 1024.4 1024.4 0.0
18/04:00am 10.8 7.0 6.0 72 2.2 NNE 15 19 8 10 1024.7 1024.7 0.0
18/03:30am 10.9 7.6 6.4 74 2.1 NE 13 19 7 10 1025.1 1025.1 0.0
18/03:00am 11.4 6.8 6.5 72 2.3 NE 20 26 11 14 1025.5 1025.5 0.0
18/02:30am 12.4 9.5 6.5 67 2.8 NE 11 17 6 9 1025.6 1025.6 0.0
18/02:00am 13.6 10.6 6.2 61 3.5 ENE 11 20 6 11 1025.7 1025.7 0.0
18/01:30am 13.5 9.0 6.8 64 3.2 SE 20 32 11 17 1025.8 1025.8 0.0
18/01:00am 14.3 8.7 3.7 49 4.8 SE 22 30 12 16 1025.9 1025.9 0.0
18/12:30am 14.1 8.5 3.7 49 4.7 SSE 22 30 12 16 1026.1 1026.1 0.0
18/12:00am 14.1 8.1 5.3 55 4.1 SSE 26 33 14 18 1026.3 1026.3 0.0
 
Date/Time
WST
Temp
°C
App
Temp
°C
Dew
Point
°C
Rel
Hum
%
Delta-T
°C
Wind Press
QNH
hPa
Press
MSL
hPa
Rain since
9am
mm
Dir  Spd
km/h
Gust
km/h
Spd
kts
Gust
kts
17/11:30pm 14.3 8.8 6.1 58 3.9 SSE 24 33 13 18 1026.3 1026.3 0.0
17/11:00pm 14.1 8.6 5.8 57 3.9 SSE 24 32 13 17 1026.5 1026.5 0.0
17/10:30pm 13.6 8.1 7.4 66 3.0 SE 26 37 14 20 1026.9 1026.9 0.0
17/10:00pm 14.1 8.9 5.3 55 4.1 SE 22 32 12 17 1027.1 1027.1 0.0
17/09:30pm 14.1 8.3 4.5 52 4.4 SSE 24 35 13 19 1027.1 1027.1 0.0
17/09:00pm 14.0 8.6 4.4 52 4.4 SE 22 30 12 16 1027.4 1027.4 0.0
17/08:30pm 14.0 7.8 4.1 51 4.5 SSE 26 33 14 18 1027.4 1027.4 0.0
17/08:00pm 13.8 8.8 4.4 53 4.3 SSE 20 30 11 16 1027.6 1027.6 0.0
17/07:30pm 13.9 7.7 4.5 53 4.3 SSE 26 39 14 21 1027.5 1027.5 0.0
17/07:00pm 13.7 7.4 4.0 52 4.4 SSE 26 33 14 18 1027.3 1027.3 0.0

Other formats

Comma delimited format used in spreadsheet applications
http://www.bom.gov.au/fwo/IDW60801/IDW60801.94601.axf

JavaScript Object Notation format (JSON) in row-major order
http://www.bom.gov.au/fwo/IDW60801/IDW60801.94601.json

Data quality

Most of these data are generated automatically and are frequently updated. Quality checks on data are not normally performed. It is possible for incorrect values to appear. Refer to information at About Latest Weather Observations and please check the disclaimer before using these data.